Flight Track Log - Related Links

Times and Time Zones

All times are in EDT time to prevent confusion due to time zone crossing. See the GJS3649 flight status page for this flight to view local times or setup timezone preferences in your user account.

Time Position Orientation Groundspeed Altitude Reporting Facility
EDT Latitude Longitude Course Direction KTS MPH feet Rate Location/Type
Tue 12:28:55 PM 42.0167 -87.9333 90° East 189 217 1,900  Level Chicago TRACON
Tue 12:29:55 PM 42.0667 -87.8833 37° Northeast 250 288 3,300 1,752 Climbing Chicago TRACON
Tue 12:31:12 PM 42.1236 -87.8022 47° Northeast 276 318 5,900 2,115 Climbing Chicago Center
Tue 12:32:14 PM 42.1364 -87.6931 81° East 298 343 8,200 2,585 Climbing Chicago Center
Tue 12:33:15 PM 42.1325 -87.5556 92° East 306 352 11,200 2,146 Climbing Chicago Center
Tue 12:34:00 PM 42.0333 -86.9311 90° East  Level FlightAware Approximate
Tue 12:34:17 PM 42.1278 -87.4269 93° East 337 388 12,600  Level Chicago Center
Tue 12:35:19 PM 42.1203 -87.2875 94° East 368 423 14,100 1,694 Climbing Chicago Center
Tue 12:36:21 PM 42.1150 -87.1431 93° East 385 443 16,100 1,645 Climbing Chicago Center
Tue 12:37:23 PM 42.1147 -86.9933 90° East 404 465 17,500 1,355 Climbing Chicago Center
Tue 12:38:25 PM 42.1200 -86.8419 87° East 404 465 18,900 1,258 Climbing Chicago Center
Tue 12:40:29 PM 42.1306 -86.5086 87° East 427 491 21,400 973 Climbing Chicago Center
Tue 12:41:30 PM 42.1372 -86.3389 87° East 449 517 21,900 634 Climbing Chicago Center
Tue 12:42:32 PM 42.1422 -86.1633 88° East 465 535 22,700 823 Climbing Chicago Center
Tue 12:43:34 PM 42.1422 -85.9644 90° East 472 543 23,600 823 Climbing Chicago Center
Tue 12:44:36 PM 42.1406 -85.7853 91° East 479 551 24,400 774 Climbing Chicago Center
Tue 12:45:38 PM 42.1389 -85.6056 91° East 483 556 25,200 774 Climbing Chicago Center
Tue 12:46:40 PM 42.1378 -85.4231 90° East 490 564 26,000 774 Climbing Chicago Center
Tue 12:47:42 PM 42.1356 -85.2003 91° East 499 574 26,800 726 Climbing Chicago Center
Tue 12:48:44 PM 42.1422 -85.0125 87° East 505 581 27,500 677 Climbing Chicago Center
Tue 12:49:46 PM 42.1483 -84.8264 87° East 501 577 28,200 823 Climbing Chicago Center
Tue 12:50:48 PM 42.1542 -84.6403 88° East 500 575 29,200 857 Climbing Chicago Center
Tue 12:52:48 PM 42.1619 -84.2503 88° East 497 572 30,800 1,000 Climbing Cleveland Center
Tue 12:53:48 PM 42.1678 -84.0656 87° East 497 572 32,200 1,200 Climbing Cleveland Center
Tue 12:54:48 PM 42.1708 -83.8892 89° East 487 560 33,200 900 Climbing Cleveland Center
Tue 12:55:48 PM 42.1778 -83.7131 87° East 476 548 34,000 800 Climbing Cleveland Center
Tue 12:56:48 PM 42.1931 -83.5317 83° East 471 542 34,800 500 Climbing Cleveland Center
Tue 12:57:48 PM 42.2100 -83.3558 83° East 483 556 35,000 100 Climbing Cleveland Center
Tue 12:58:48 PM 42.2203 -83.1881 85° East 482 555 35,000  Level Cleveland Center
Tue 12:59:48 PM 42.2342 -83.0203 84° East 476 548 35,000  Level Cleveland Center
Tue 01:00:48 PM 42.2461 -82.8467 85° East 466 536 35,000  Level Cleveland Center
Tue 01:01:48 PM 42.2597 -82.6733 84° East 460 529 35,000  Level Cleveland Center
Tue 01:02:48 PM 42.2733 -82.4969 84° East 460 529 35,000  Level Cleveland Center
Tue 01:03:48 PM 42.2844 -82.3206 85° East 460 529 35,000  Level Cleveland Center
Tue 01:04:48 PM 42.2953 -82.1467 85° East 460 529 35,000  Level Cleveland Center
Tue 01:05:48 PM 42.3122 -81.9675 83° East 465 535 35,000  Level Cleveland Center
Tue 01:06:48 PM 42.3247 -81.7936 84° East 465 535 35,000  Level Cleveland Center
Tue 01:07:48 PM 42.3347 -81.6197 85° East 465 535 35,000  Level Cleveland Center
Tue 01:08:48 PM 42.3464 -81.4456 85° East 459 528 35,000  Level Cleveland Center
Tue 01:09:48 PM 42.3581 -81.2575 85° East 459 528 35,000  Level Cleveland Center
Tue 01:10:48 PM 42.3675 -81.0806 86° East 467 537 35,000  Level Cleveland Center
Tue 01:11:48 PM 42.3786 -80.9036 85° East 461 531 35,000  Level Cleveland Center
Tue 01:12:48 PM 42.3892 -80.7350 85° East 461 531 35,000  Level Cleveland Center
Tue 01:13:48 PM 42.3997 -80.5606 85° East 461 531 35,000  Level Cleveland Center
Tue 01:14:48 PM 42.4081 -80.3892 86° East 461 531 35,000  Level Cleveland Center
Tue 01:15:48 PM 42.4158 -80.2119 87° East 461 531 35,000  Level Cleveland Center
Tue 01:16:48 PM 42.4256 -80.0347 86° East 461 531 35,000  Level Cleveland Center
Tue 01:17:48 PM 42.4350 -79.8603 86° East 461 531 35,000 200 Level Cleveland Center
Tue 01:18:48 PM 42.4442 -79.6828 86° East 461 531 35,400 700 Climbing Cleveland Center
Tue 01:19:48 PM 42.4511 -79.5253 87° East 469 540 36,400 800 Climbing Cleveland Center
Tue 01:20:48 PM 42.4597 -79.3336 86° East 463 533 37,000 300 Climbing Cleveland Center
Tue 01:21:48 PM 42.4681 -79.1533 86° East 463 533 37,000  Level Cleveland Center
Tue 01:22:48 PM 42.4761 -78.9731 86° East 463 533 37,000  Level Cleveland Center
Tue 01:23:48 PM 42.4819 -78.7983 87° East 468 539 37,000  Level Cleveland Center
Tue 01:24:48 PM 42.4875 -78.6236 87° East 468 539 37,000  Level Cleveland Center
Tue 01:25:48 PM 42.4967 -78.4458 86° East 468 539 37,000  Level Cleveland Center
Tue 01:26:48 PM 42.5017 -78.2711 88° East 463 533 37,000  Level Cleveland Center
Tue 01:27:48 PM 42.5064 -78.0961 88° East 463 533 37,000  Level Cleveland Center
Tue 01:28:48 PM 42.5108 -77.9214 88° East 463 533 37,000  Level Cleveland Center
Tue 01:29:48 PM 42.5169 -77.7436 87° East 463 533 37,000  Level Cleveland Center
Tue 01:30:48 PM 42.5231 -77.5686 87° East 463 533 37,000 -150 Level Cleveland Center
Tue 01:31:48 PM 42.5269 -77.4078 88° East 468 539 36,700 -650 Descending Cleveland Center
Tue 01:32:48 PM 42.5325 -77.2300 88° East 468 539 35,700 -518 Descending Cleveland Center
Tue 01:35:05 PM 42.5419 -76.7944 88° East 495 570 35,000 -213 Descending Boston Center
Tue 01:36:05 PM 42.5467 -76.6172 88° East 484 557 35,000  Level Boston Center
Tue 01:37:05 PM 42.5489 -76.4397 89° East 477 549 35,000 -300 Level Boston Center
Tue 01:38:05 PM 42.5528 -76.2653 88° East 470 541 34,400 -800 Descending Boston Center
Tue 01:39:05 PM 42.5558 -76.1103 88° East 465 535 33,400 -1,000 Descending Boston Center
Tue 01:40:05 PM 42.5569 -75.9383 89° East 458 527 32,400 -950 Descending Boston Center
Tue 01:41:05 PM 42.5414 -75.7656 97° East 458 527 31,500 -700 Descending Boston Center
Tue 01:42:05 PM 42.5133 -75.5808 102° East 470 541 31,000 -600 Descending Boston Center
Tue 01:43:05 PM 42.4908 -75.4081 100° East 475 547 30,300 -1,250 Descending Boston Center
Tue 01:44:05 PM 42.4661 -75.2350 101° East 467 537 28,500 -1,900 Descending Boston Center
Tue 01:45:05 PM 42.4681 -75.0606 89° East 462 532 26,500 -2,000 Descending Boston Center
Tue 01:46:05 PM 42.4719 -74.8919 88° East 462 532 24,500 -2,250 Descending Boston Center
Tue 01:47:05 PM 42.4775 -74.7231 87° East 452 520 22,000 -2,500 Descending Boston Center
Tue 01:48:05 PM 42.4806 -74.5656 88° East 438 504 19,500 -2,000 Descending Boston Center
Tue 01:49:05 PM 42.4817 -74.3883 89° East 426 490 18,000 -850 Descending Boston Center
Tue 01:50:05 PM 42.4842 -74.2364 89° East 414 476 17,800 -950 Descending Boston Center
Tue 01:51:05 PM 42.4861 -74.1011 89° East 402 463 16,100 -1,400 Descending Boston Center
Tue 01:52:05 PM 42.4883 -73.9519 89° East 371 427 15,000 -550 Descending Boston Center
Tue 01:53:05 PM 42.4900 -73.8253 89° East 362 417 15,000 -250 Level Boston Center
Tue 01:54:05 PM 42.4689 -73.6644 100° East 381 438 14,500 -750 Descending Boston Center
Tue 01:55:05 PM 42.4242 -73.5425 116° Southeast 397 457 13,500 -980 Descending Boston Center
Tue 01:55:43 PM 42.3856 -73.4464 119° Southeast 402 463 12,900 -980 Descending Boston Center
Tue 01:56:43 PM 42.3367 -73.3108 116° Southeast 400 460 11,900 -1,041 Descending Boston Center
Tue 01:57:44 PM 42.2411 -73.2506 155° Southeast 381 438 10,800 -982 Descending Boston Center
Tue 01:58:33 PM 42.1789 -73.2050 152° Southeast 331 381 10,100 -1,111 Descending Boston Center
Tue 01:59:05 PM 42.1417 -73.1681 144° Southeast 324 373 9,300 -1,630 Descending Boston Center
Tue 02:00:05 PM 42.0753 -73.1114 148° Southeast 297 342 7,600 -1,750 Descending Boston Center
Tue 02:01:05 PM 42.0089 -73.0547 148° Southeast 292 336 5,800 -1,563 Descending Boston Center
Tue 02:01:41 PM 41.9717 -73.0208 146° Southeast 281 323 5,100 -1,063 Descending Boston Center
Tue 02:02:41 PM 41.9053 -72.9644 148° Southeast 264 304 4,100 -1,091 Descending Boston Center
Tue 02:03:42 PM 41.8472 -72.9111 146° Southeast 255 293 2,900 -818 Descending Boston Center
Tue 02:04:31 PM 41.8264 -72.8692 124° Southeast 211 243 2,600 -289 Descending Boston Center
Tue 02:05:05 PM 41.8392 -72.8247 69° East 178 205 2,500 -574 Descending Boston Center
Tue 02:06:05 PM 41.8725 -72.7775 47° Northeast 153 176 1,700 -700 Descending Boston Center
Tue 02:07:05 PM 41.8978 -72.7442 44° Northeast 148 170 1,100 -650 Descending Boston Center
Tue 02:08:05 PM 41.9269 -72.7081 43° Northeast 148 170 400 4,950 Descending Boston Center
Tue 02:09:05 PM 41.9522 -72.6578 56° Northeast 148 170 11,000 5,300 Climbing Boston Center
Tue 02:10:05 PM 41.9792 -72.6161 49° Northeast 148 170 11,000  Level Boston Center

Login

Don't have an account? Register now (free) for customized features, flight alerts, and more!